Time;durP1;ratioP1;P1;durP2;ratioP2;P2;SDS_P1;SDS_P2;PMS_P1;PMS_P2;Temp;Humidity;BMP_temperature;BMP_pressure;BME280_temperature;BME280_humidity;BME280_pressure;Samples;Min_cycle;Max_cycle;Signal;HPM_P1;HPM_P2
2023/01/24 00:01:19;;;;;;;10.95;6.85;;;;;;;;;;5091706;28;20024;-68
2023/01/24 00:03:46;;;;;;;12.52;7.32;;;;;;;;;;5092185;28;20028;-68
2023/01/24 00:06:12;;;;;;;12.88;7.50;;;;;;;;;;5091942;28;20020;-68
2023/01/24 00:08:38;;;;;;;25.02;11.27;;;;;;;;;;5091904;28;20028;-68
2023/01/24 00:11:06;;;;;;;21.40;10.20;;;;;;;;;;5092072;28;20071;-67
2023/01/24 00:13:33;;;;;;;20.08;10.50;;;;;;;;;;5091842;28;20013;-67
2023/01/24 00:16:03;;;;;;;30.48;12.38;;;;;;;;;;5091808;28;20034;-68
2023/01/24 00:18:32;;;;;;;22.10;10.00;;;;;;;;;;5094005;28;20030;-67
2023/01/24 00:21:11;;;;;;;23.70;10.48;;;;;;;;;;5096003;28;20373;-68
2023/01/24 00:23:38;;;;;;;18.92;9.25;;;;;;;;;;5095958;28;20519;-68
2023/01/24 00:26:04;;;;;;;21.63;10.38;;;;;;;;;;5096076;28;20024;-67
2023/01/24 00:28:31;;;;;;;27.48;11.68;;;;;;;;;;5096134;28;20035;-68
2023/01/24 00:30:57;;;;;;;24.48;10.90;;;;;;;;;;5095597;28;20046;-68
2023/01/24 00:33:23;;;;;;;16.48;9.50;;;;;;;;;;5096058;28;20028;-68
2023/01/24 00:35:53;;;;;;;29.48;12.07;;;;;;;;;;5096057;28;20023;-68
2023/01/24 00:38:21;;;;;;;19.90;9.85;;;;;;;;;;5095849;28;20040;-67
2023/01/24 00:40:47;;;;;;;21.90;10.07;;;;;;;;;;5095715;28;20046;-67
2023/01/24 00:43:13;;;;;;;21.15;10.35;;;;;;;;;;5095489;28;20473;-67
2023/01/24 00:45:40;;;;;;;35.42;14.35;;;;;;;;;;5094073;28;20032;-68
2023/01/24 00:48:07;;;;;;;20.73;9.98;;;;;;;;;;5095613;28;20511;-68
2023/01/24 00:50:34;;;;;;;16.83;9.18;;;;;;;;;;5095644;28;20366;-68
2023/01/24 00:53:00;;;;;;;15.07;9.15;;;;;;;;;;5095355;28;20016;-67
2023/01/24 00:55:27;;;;;;;17.42;8.98;;;;;;;;;;5095102;28;20465;-67
2023/01/24 00:57:53;;;;;;;15.05;8.52;;;;;;;;;;5095380;28;20036;-67
2023/01/24 01:00:20;;;;;;;15.95;8.60;;;;;;;;;;5095090;28;20117;-68
2023/01/24 01:02:47;;;;;;;19.63;9.30;;;;;;;;;;5095224;28;20025;-68
2023/01/24 01:05:13;;;;;;;17.92;9.52;;;;;;;;;;5095261;28;20020;-67
2023/01/24 01:07:39;;;;;;;19.00;9.32;;;;;;;;;;5094894;28;20023;-67
2023/01/24 01:10:06;;;;;;;15.98;9.27;;;;;;;;;;5094929;28;20030;-67
2023/01/24 01:12:32;;;;;;;18.30;9.32;;;;;;;;;;5095045;28;20031;-68
2023/01/24 01:14:58;;;;;;;13.15;8.35;;;;;;;;;;5094537;28;20024;-68
2023/01/24 01:17:26;;;;;;;13.43;8.05;;;;;;;;;;5095107;28;20036;-68
2023/01/24 01:19:53;;;;;;;15.57;8.95;;;;;;;;;;5094763;28;20027;-67
2023/01/24 01:22:20;;;;;;;14.48;8.82;;;;;;;;;;5095182;28;20035;-68
2023/01/24 01:24:46;;;;;;;14.38;7.53;;;;;;;;;;5094913;28;20020;-68
2023/01/24 01:27:13;;;;;;;11.85;7.97;;;;;;;;;;5094727;28;20030;-68
2023/01/24 01:29:39;;;;;;;12.80;8.32;;;;;;;;;;5094257;28;20036;-68
2023/01/24 01:32:05;;;;;;;17.40;9.45;;;;;;;;;;5094974;28;20038;-68
2023/01/24 01:34:32;;;;;;;20.50;10.45;;;;;;;;;;5094560;28;20389;-67
2023/01/24 01:36:58;;;;;;;14.25;8.38;;;;;;;;;;5094475;28;20050;-68
2023/01/24 01:39:25;;;;;;;14.13;8.18;;;;;;;;;;5094600;28;20028;-68
2023/01/24 01:41:51;;;;;;;14.43;8.18;;;;;;;;;;5094752;28;20036;-67
2023/01/24 01:47:05;;;;;;;15.18;8.55;;;;;;;;;;5094362;28;20030;-67
2023/01/24 01:49:32;;;;;;;18.70;9.60;;;;;;;;;;5094239;28;20028;-67
2023/01/24 01:52:01;;;;;;;18.17;8.75;;;;;;;;;;5094314;28;20024;-68
2023/01/24 01:54:30;;;;;;;16.65;9.57;;;;;;;;;;5094352;28;20035;-67
2023/01/24 01:56:59;;;;;;;15.50;9.27;;;;;;;;;;5093552;28;20048;-68
2023/01/24 01:59:28;;;;;;;14.55;8.52;;;;;;;;;;5094499;28;20016;-68
2023/01/24 02:01:55;;;;;;;17.77;9.85;;;;;;;;;;5094150;28;20020;-67
2023/01/24 02:04:32;;;;;;;16.17;8.40;;;;;;;;;;5094010;28;20012;-68
2023/01/24 02:07:20;;;;;;;14.63;8.43;;;;;;;;;;5094186;28;20032;-67
2023/01/24 02:09:48;;;;;;;14.18;9.00;;;;;;;;;;5093831;28;20020;-67
2023/01/24 02:12:18;;;;;;;17.20;9.52;;;;;;;;;;5093608;28;20069;-67
2023/01/24 02:17:31;;;;;;;15.13;8.90;;;;;;;;;;5093968;28;20028;-68
2023/01/24 02:19:57;;;;;;;13.20;8.18;;;;;;;;;;5093978;28;20016;-68
2023/01/24 02:22:29;;;;;;;12.10;8.35;;;;;;;;;;5093550;28;20388;-68
2023/01/24 02:25:02;;;;;;;14.30;8.27;;;;;;;;;;5093634;28;20028;-68
2023/01/24 02:27:28;;;;;;;15.07;8.82;;;;;;;;;;5108750;28;20038;-68
2023/01/24 02:29:55;;;;;;;12.85;8.60;;;;;;;;;;5114291;28;20028;-67
2023/01/24 02:32:21;;;;;;;15.18;8.63;;;;;;;;;;5114107;28;20472;-68
2023/01/24 02:34:47;;;;;;;14.93;9.27;;;;;;;;;;5114385;28;20027;-68
2023/01/24 02:37:14;;;;;;;13.45;8.18;;;;;;;;;;5113780;28;20043;-68
2023/01/24 02:39:40;;;;;;;15.90;8.57;;;;;;;;;;5113381;28;20024;-67
2023/01/24 02:42:08;;;;;;;15.00;8.88;;;;;;;;;;5113032;28;20028;-68
2023/01/24 02:44:42;;;;;;;15.52;8.23;;;;;;;;;;5114225;28;20027;-67
2023/01/24 02:47:09;;;;;;;16.17;8.93;;;;;;;;;;5113595;28;20028;-67
2023/01/24 02:49:35;;;;;;;15.48;8.80;;;;;;;;;;5113429;28;20023;-68
2023/01/24 02:54:47;;;;;;;15.10;9.68;;;;;;;;;;5109235;28;20028;-68
2023/01/24 02:59:58;;;;;;;13.88;8.73;;;;;;;;;;5093080;28;20027;-67
2023/01/24 03:02:24;;;;;;;15.27;9.35;;;;;;;;;;5092820;28;20035;-68
2023/01/24 03:04:50;;;;;;;14.85;8.85;;;;;;;;;;5092917;28;20028;-68
2023/01/24 03:07:17;;;;;;;12.63;8.52;;;;;;;;;;5092825;28;20464;-67
2023/01/24 03:09:46;;;;;;;15.48;8.63;;;;;;;;;;5092690;28;20028;-67
2023/01/24 03:34:30;;;;;;;14.90;9.38;;;;;;;;;;5092807;28;20024;-67
2023/01/24 03:36:56;;;;;;;19.02;9.70;;;;;;;;;;5092192;28;20032;-67
2023/01/24 03:40:23;;;;;;;17.55;9.75;;;;;;;;;;5092197;28;20020;-68
2023/01/24 03:42:18;;;;;;;13.90;8.82;;;;;;;;;;5087799;28;20040;-67
2023/01/24 03:44:44;;;;;;;12.82;8.70;;;;;;;;;;5092397;28;20024;-68
2023/01/24 03:47:11;;;;;;;15.40;9.57;;;;;;;;;;5092197;28;20020;-67
2023/01/24 03:52:28;;;;;;;14.88;8.75;;;;;;;;;;5091976;28;20024;-67
2023/01/24 03:54:58;;;;;;;13.95;8.48;;;;;;;;;;5091904;28;20016;-68
2023/01/24 03:57:25;;;;;;;14.27;8.35;;;;;;;;;;5092022;28;20058;-67
2023/01/24 03:59:52;;;;;;;14.27;8.75;;;;;;;;;;5092027;28;20016;-67
2023/01/24 04:02:18;;;;;;;14.57;9.13;;;;;;;;;;5091954;28;20031;-67
2023/01/24 04:07:29;;;;;;;14.10;9.55;;;;;;;;;;5091791;28;20020;-67
2023/01/24 04:09:58;;;;;;;15.70;9.13;;;;;;;;;;5092262;28;20012;-67
2023/01/24 04:12:25;;;;;;;13.65;8.68;;;;;;;;;;5092150;28;20031;-68
2023/01/24 04:14:51;;;;;;;16.25;9.90;;;;;;;;;;5091931;28;20468;-67
2023/01/24 04:17:18;;;;;;;15.30;9.38;;;;;;;;;;5091882;28;20506;-68
2023/01/24 04:19:44;;;;;;;15.95;9.30;;;;;;;;;;5092120;28;20030;-68
2023/01/24 04:22:11;;;;;;;15.05;9.18;;;;;;;;;;5091779;28;20028;-67
2023/01/24 04:24:37;;;;;;;13.27;8.70;;;;;;;;;;5092148;28;20020;-66
2023/01/24 04:27:03;;;;;;;15.65;9.20;;;;;;;;;;5091737;28;20031;-67
2023/01/24 04:29:30;;;;;;;14.85;9.35;;;;;;;;;;5091879;28;20031;-67
2023/01/24 04:31:56;;;;;;;15.65;9.73;;;;;;;;;;5091750;28;20481;-68
2023/01/24 04:34:22;;;;;;;20.98;11.85;;;;;;;;;;5091727;28;20032;-67
2023/01/24 04:36:48;;;;;;;20.25;11.35;;;;;;;;;;5091613;28;20028;-67
2023/01/24 04:39:15;;;;;;;19.88;10.77;;;;;;;;;;5091719;28;20021;-67
2023/01/24 04:41:41;;;;;;;15.63;9.50;;;;;;;;;;5091758;28;20080;-68
2023/01/24 04:44:07;;;;;;;16.45;9.38;;;;;;;;;;5091922;28;20032;-67
2023/01/24 04:46:34;;;;;;;15.80;9.55;;;;;;;;;;5091919;28;20092;-67
2023/01/24 04:49:00;;;;;;;16.02;9.50;;;;;;;;;;5091817;28;20024;-67
2023/01/24 04:51:26;;;;;;;16.92;9.75;;;;;;;;;;5091526;28;20364;-67
2023/01/24 04:53:53;;;;;;;15.02;8.18;;;;;;;;;;5091609;28;20012;-67
2023/01/24 04:56:19;;;;;;;15.88;9.55;;;;;;;;;;5090072;28;20046;-68
2023/01/24 04:58:45;;;;;;;14.70;9.10;;;;;;;;;;5091984;28;20028;-68
2023/01/24 05:01:12;;;;;;;17.33;9.55;;;;;;;;;;5091986;28;20032;-67
2023/01/24 05:03:38;;;;;;;16.17;8.80;;;;;;;;;;5092150;28;20480;-67
2023/01/24 05:06:04;;;;;;;15.30;9.50;;;;;;;;;;5094976;28;20081;-67
2023/01/24 05:08:31;;;;;;;17.80;10.02;;;;;;;;;;5094990;28;20016;-67
2023/01/24 05:11:01;;;;;;;15.60;9.57;;;;;;;;;;5095374;28;20023;-68
2023/01/24 05:13:27;;;;;;;20.92;11.10;;;;;;;;;;5095107;28;20069;-67
2023/01/24 05:15:53;;;;;;;18.23;9.95;;;;;;;;;;5094984;28;20395;-68
2023/01/24 05:18:20;;;;;;;17.70;10.95;;;;;;;;;;5094702;28;20050;-67
2023/01/24 05:20:46;;;;;;;21.92;11.35;;;;;;;;;;5094511;28;20024;-67
2023/01/24 05:23:13;;;;;;;18.52;10.77;;;;;;;;;;5094817;28;20027;-67
2023/01/24 05:25:39;;;;;;;17.73;10.30;;;;;;;;;;5093573;28;20024;-67
2023/01/24 05:28:06;;;;;;;24.20;11.40;;;;;;;;;;5094944;28;20035;-67
2023/01/24 05:30:32;;;;;;;22.58;11.02;;;;;;;;;;5094986;28;20032;-67
2023/01/24 05:32:58;;;;;;;20.65;10.38;;;;;;;;;;5093535;28;20028;-67
2023/01/24 05:35:25;;;;;;;17.63;10.30;;;;;;;;;;5094638;28;20024;-67
2023/01/24 05:37:51;;;;;;;17.15;10.18;;;;;;;;;;5094512;28;20038;-67
2023/01/24 05:40:17;;;;;;;21.73;11.52;;;;;;;;;;5094508;28;20020;-67
2023/01/24 05:42:44;;;;;;;17.50;10.43;;;;;;;;;;5093456;28;20026;-67
2023/01/24 05:45:11;;;;;;;17.77;10.45;;;;;;;;;;5094478;28;20020;-67
2023/01/24 05:47:37;;;;;;;17.90;10.77;;;;;;;;;;5094261;28;20020;-67
2023/01/24 05:50:03;;;;;;;22.33;12.48;;;;;;;;;;5094002;28;20028;-67
2023/01/24 05:52:30;;;;;;;17.85;11.35;;;;;;;;;;5094479;28;20028;-67
2023/01/24 05:54:56;;;;;;;21.70;10.98;;;;;;;;;;5094078;28;20012;-67
2023/01/24 05:57:22;;;;;;;19.73;11.57;;;;;;;;;;5093981;28;20040;-67
2023/01/24 05:59:49;;;;;;;18.08;10.73;;;;;;;;;;5094176;28;20024;-67
2023/01/24 06:02:15;;;;;;;20.77;11.77;;;;;;;;;;5094172;28;20016;-67
2023/01/24 06:04:41;;;;;;;18.05;10.88;;;;;;;;;;5093772;28;20028;-70
2023/01/24 06:07:07;;;;;;;17.67;10.75;;;;;;;;;;5094007;28;20066;-67
2023/01/24 06:09:34;;;;;;;19.92;11.25;;;;;;;;;;5092641;28;20050;-67
2023/01/24 06:12:00;;;;;;;20.83;10.77;;;;;;;;;;5093051;28;20031;-67
2023/01/24 06:14:26;;;;;;;17.30;10.77;;;;;;;;;;5093866;28;20027;-67
2023/01/24 06:16:53;;;;;;;19.55;10.85;;;;;;;;;;5093769;28;20020;-67
2023/01/24 06:19:19;;;;;;;17.80;11.02;;;;;;;;;;5093524;28;20047;-67
2023/01/24 06:21:47;;;;;;;17.50;10.75;;;;;;;;;;5093841;28;20499;-67
2023/01/24 06:24:18;;;;;;;19.38;10.85;;;;;;;;;;5093756;28;20028;-67
2023/01/24 06:26:45;;;;;;;19.02;11.55;;;;;;;;;;5094127;28;20084;-67
2023/01/24 06:29:12;;;;;;;23.05;13.02;;;;;;;;;;5093778;28;20036;-67
2023/01/24 06:31:56;;;;;;;30.23;15.35;;;;;;;;;;5093400;28;20024;-67
2023/01/24 06:34:32;;;;;;;26.17;14.15;;;;;;;;;;5092959;28;20402;-67
2023/01/24 06:36:58;;;;;;;26.20;14.32;;;;;;;;;;5093356;28;20028;-67
2023/01/24 06:39:25;;;;;;;28.77;15.77;;;;;;;;;;5092261;28;20028;-67
2023/01/24 06:41:51;;;;;;;29.85;15.50;;;;;;;;;;5093422;28;20012;-67
2023/01/24 06:44:17;;;;;;;26.50;15.70;;;;;;;;;;5093502;28;20033;-67
2023/01/24 06:46:44;;;;;;;24.92;14.25;;;;;;;;;;5092889;28;20024;-67
2023/01/24 06:49:11;;;;;;;23.88;14.00;;;;;;;;;;5093306;28;20028;-67
2023/01/24 06:51:37;;;;;;;25.00;14.35;;;;;;;;;;5093171;28;20516;-68
2023/01/24 06:54:04;;;;;;;26.95;14.70;;;;;;;;;;5093168;28;20034;-69
2023/01/24 06:56:30;;;;;;;27.48;14.52;;;;;;;;;;5092814;28;20046;-68
2023/01/24 06:58:56;;;;;;;34.47;18.17;;;;;;;;;;5092902;28;20028;-67
2023/01/24 07:01:22;;;;;;;33.75;17.75;;;;;;;;;;5091711;28;20020;-67
2023/01/24 07:03:49;;;;;;;55.03;28.50;;;;;;;;;;5092979;28;20031;-67
2023/01/24 07:06:15;;;;;;;51.63;25.70;;;;;;;;;;5092929;28;20362;-67
2023/01/24 07:08:42;;;;;;;31.60;18.98;;;;;;;;;;5092706;28;20042;-67
2023/01/24 07:11:08;;;;;;;35.10;17.73;;;;;;;;;;5092917;28;20020;-67
2023/01/24 07:13:34;;;;;;;34.10;17.52;;;;;;;;;;5092756;28;20042;-67
2023/01/24 07:16:01;;;;;;;30.73;16.77;;;;;;;;;;5088649;28;20020;-68
2023/01/24 07:18:28;;;;;;;25.35;15.13;;;;;;;;;;5091806;28;20031;-67
2023/01/24 07:20:54;;;;;;;30.15;17.33;;;;;;;;;;5092529;28;20035;-68
2023/01/24 07:23:28;;;;;;;31.20;16.25;;;;;;;;;;5092253;28;20016;-67
2023/01/24 07:25:55;;;;;;;28.05;16.58;;;;;;;;;;5089581;28;20020;-70
2023/01/24 07:28:21;;;;;;;27.23;15.88;;;;;;;;;;5091588;28;20034;-69
2023/01/24 07:30:48;;;;;;;28.90;15.77;;;;;;;;;;5088595;28;20030;-70
2023/01/24 07:33:15;;;;;;;27.50;15.88;;;;;;;;;;5091873;28;20042;-69
2023/01/24 07:35:42;;;;;;;27.27;15.18;;;;;;;;;;5088252;28;20043;-69
2023/01/24 07:38:09;;;;;;;30.83;15.77;;;;;;;;;;5087284;28;20024;-68
2023/01/24 07:40:36;;;;;;;28.27;15.68;;;;;;;;;;5087928;28;20024;-66
2023/01/24 07:43:02;;;;;;;26.88;15.30;;;;;;;;;;5090729;28;20024;-65
2023/01/24 07:45:30;;;;;;;26.27;14.80;;;;;;;;;;5089975;28;20039;-70
2023/01/24 07:47:56;;;;;;;26.00;15.02;;;;;;;;;;5091266;28;20020;-66
2023/01/24 07:50:23;;;;;;;26.33;15.43;;;;;;;;;;5091792;28;20024;-67
2023/01/24 07:52:53;;;;;;;28.65;15.93;;;;;;;;;;5091798;28;20051;-67
2023/01/24 07:55:20;;;;;;;27.08;15.63;;;;;;;;;;5091036;28;20020;-67
2023/01/24 07:57:46;;;;;;;29.55;15.07;;;;;;;;;;5091148;28;20400;-68
2023/01/24 08:00:13;;;;;;;25.60;14.75;;;;;;;;;;5090533;28;20473;-67
2023/01/24 08:02:40;;;;;;;28.75;15.57;;;;;;;;;;5090479;28;20020;-67
2023/01/24 08:05:06;;;;;;;27.13;14.88;;;;;;;;;;5089923;28;20032;-67
2023/01/24 08:07:33;;;;;;;24.67;14.57;;;;;;;;;;5088842;28;20042;-67
2023/01/24 08:09:59;;;;;;;26.02;15.32;;;;;;;;;;5090969;28;20020;-66
2023/01/24 08:12:25;;;;;;;27.48;15.20;;;;;;;;;;5089286;28;20038;-68
2023/01/24 08:14:52;;;;;;;25.45;14.85;;;;;;;;;;5090541;28;20016;-68
2023/01/24 08:17:18;;;;;;;25.70;15.32;;;;;;;;;;5091654;28;20024;-67
2023/01/24 08:19:44;;;;;;;35.72;18.42;;;;;;;;;;5090311;28;20024;-67
2023/01/24 08:22:11;;;;;;;29.08;16.48;;;;;;;;;;5091073;28;20016;-67
2023/01/24 08:24:37;;;;;;;32.67;17.95;;;;;;;;;;5090983;28;20092;-67
2023/01/24 08:27:05;;;;;;;32.20;18.35;;;;;;;;;;5091004;28;20043;-68
2023/01/24 08:29:32;;;;;;;34.15;18.77;;;;;;;;;;5090896;28;20030;-67
2023/01/24 08:31:58;;;;;;;35.95;20.02;;;;;;;;;;5091304;28;20016;-67
2023/01/24 08:34:25;;;;;;;37.08;20.35;;;;;;;;;;5091418;28;20036;-67
2023/01/24 08:36:51;;;;;;;35.35;20.33;;;;;;;;;;5089811;28;20016;-68
2023/01/24 08:39:18;;;;;;;34.38;19.35;;;;;;;;;;5092758;28;20020;-68
2023/01/24 08:41:45;;;;;;;37.10;19.02;;;;;;;;;;5094172;28;20023;-67
2023/01/24 08:44:15;;;;;;;30.88;17.10;;;;;;;;;;5094544;28;20024;-67
2023/01/24 08:46:42;;;;;;;25.17;14.57;;;;;;;;;;5094933;28;20024;-67
2023/01/24 08:49:11;;;;;;;21.20;13.85;;;;;;;;;;5102540;28;20449;-67
2023/01/24 08:51:38;;;;;;;26.95;15.32;;;;;;;;;;5086417;28;20016;-67
2023/01/24 08:54:07;;;;;;;23.35;14.40;;;;;;;;;;5094957;28;20046;-67
2023/01/24 08:56:34;;;;;;;23.33;14.65;;;;;;;;;;5093082;28;20047;-67
2023/01/24 08:59:00;;;;;;;21.58;14.27;;;;;;;;;;5094428;28;20465;-67
2023/01/24 09:01:27;;;;;;;19.05;12.80;;;;;;;;;;5094546;28;20032;-66
2023/01/24 09:03:56;;;;;;;25.40;15.70;;;;;;;;;;5093614;28;20050;-67
2023/01/24 09:06:23;;;;;;;19.63;13.05;;;;;;;;;;5094562;28;20499;-69
2023/01/24 09:08:51;;;;;;;133.15;67.78;;;;;;;;;;5093435;28;20038;-68
2023/01/24 09:11:18;;;;;;;18.52;12.68;;;;;;;;;;5094367;28;20057;-68
2023/01/24 09:13:44;;;;;;;16.13;11.20;;;;;;;;;;5093934;28;20046;-68
2023/01/24 09:16:11;;;;;;;19.17;13.00;;;;;;;;;;5093509;28;20028;-68
2023/01/24 09:18:37;;;;;;;108.13;53.72;;;;;;;;;;5093616;28;20031;-68
2023/01/24 09:21:04;;;;;;;25.85;17.10;;;;;;;;;;5093947;28;20016;-68
2023/01/24 09:23:30;;;;;;;14.88;10.40;;;;;;;;;;5093647;28;20036;-67
2023/01/24 09:25:56;;;;;;;15.32;11.05;;;;;;;;;;5094485;28;20027;-68
2023/01/24 09:28:23;;;;;;;17.35;11.73;;;;;;;;;;5093822;28;20044;-68
2023/01/24 09:30:49;;;;;;;17.60;11.63;;;;;;;;;;5093546;28;20032;-68
2023/01/24 09:33:17;;;;;;;16.13;11.65;;;;;;;;;;5093916;28;20024;-67
2023/01/24 09:35:51;;;;;;;17.30;12.00;;;;;;;;;;5093878;28;20373;-68
2023/01/24 09:38:17;;;;;;;20.30;13.40;;;;;;;;;;5093035;28;20495;-67
2023/01/24 09:40:46;;;;;;;22.27;13.38;;;;;;;;;;5093357;28;20028;-67
2023/01/24 09:43:16;;;;;;;19.85;12.30;;;;;;;;;;5093588;28;20368;-67
2023/01/24 09:46:04;;;;;;;21.48;13.63;;;;;;;;;;5093488;28;20020;-67
2023/01/24 09:48:33;;;;;;;21.85;14.00;;;;;;;;;;5093708;28;20109;-67
2023/01/24 09:51:05;;;;;;;20.40;12.52;;;;;;;;;;5093093;28;20027;-68
2023/01/24 09:53:40;;;;;;;19.30;12.27;;;;;;;;;;5092442;28;20388;-67
2023/01/24 09:56:11;;;;;;;18.50;12.20;;;;;;;;;;5093229;28;20054;-67
2023/01/24 09:58:43;;;;;;;19.30;12.18;;;;;;;;;;5093709;28;20032;-68
2023/01/24 10:01:13;;;;;;;20.30;12.15;;;;;;;;;;5092175;28;20024;-67
2023/01/24 10:03:40;;;;;;;19.93;13.13;;;;;;;;;;5091745;28;20024;-66
2023/01/24 10:06:17;;;;;;;18.65;12.23;;;;;;;;;;5088601;28;20028;-66
2023/01/24 10:08:49;;;;;;;18.70;12.25;;;;;;;;;;5090634;28;20510;-66
2023/01/24 10:11:18;;;;;;;18.98;12.18;;;;;;;;;;5092420;28;20027;-66
2023/01/24 10:13:54;;;;;;;19.52;12.20;;;;;;;;;;5092325;28;20053;-67
2023/01/24 10:16:32;;;;;;;17.50;12.07;;;;;;;;;;5092076;28;20028;-66
2023/01/24 10:19:01;;;;;;;16.13;10.70;;;;;;;;;;5092050;28;20522;-66
2023/01/24 10:21:40;;;;;;;21.63;13.07;;;;;;;;;;5092399;28;20032;-66
2023/01/24 10:24:12;;;;;;;15.10;10.00;;;;;;;;;;5092006;28;20072;-67
2023/01/24 10:26:57;;;;;;;15.27;10.70;;;;;;;;;;5097155;28;20030;-67
2023/01/24 10:29:31;;;;;;;15.10;9.85;;;;;;;;;;5091947;28;20198;-66
2023/01/24 10:32:04;;;;;;;15.82;11.10;;;;;;;;;;5091299;28;20027;-67
2023/01/24 10:34:50;;;;;;;13.85;10.43;;;;;;;;;;5081772;28;20028;-67
2023/01/24 10:37:24;;;;;;;17.58;11.90;;;;;;;;;;5085054;28;20493;-67
2023/01/24 10:39:51;;;;;;;15.63;10.82;;;;;;;;;;5090676;28;20042;-67
2023/01/24 10:42:17;;;;;;;14.50;10.85;;;;;;;;;;5091475;28;20020;-67
2023/01/24 10:44:43;;;;;;;15.68;10.85;;;;;;;;;;5092027;28;20024;-66
2023/01/24 10:47:28;;;;;;;13.65;10.30;;;;;;;;;;5091196;28;20393;-67
2023/01/24 10:50:01;;;;;;;15.25;10.93;;;;;;;;;;5080924;28;20036;-67
2023/01/24 10:52:28;;;;;;;13.82;10.02;;;;;;;;;;5091437;28;20030;-66
2023/01/24 10:54:56;;;;;;;13.65;10.30;;;;;;;;;;5091575;28;20031;-66
2023/01/24 10:57:25;;;;;;;13.88;10.02;;;;;;;;;;5091799;28;20050;-65
2023/01/24 10:59:52;;;;;;;15.65;11.00;;;;;;;;;;5091129;28;20104;-67
2023/01/24 11:02:23;;;;;;;15.85;10.38;;;;;;;;;;5091085;28;20032;-66
2023/01/24 11:05:03;;;;;;;14.15;11.18;;;;;;;;;;5091611;28;20020;-67
2023/01/24 11:07:31;;;;;;;16.83;11.07;;;;;;;;;;5091272;28;20038;-65
2023/01/24 11:10:01;;;;;;;13.95;10.60;;;;;;;;;;5090452;28;20396;-66
2023/01/24 11:12:28;;;;;;;15.50;10.67;;;;;;;;;;5091542;28;20035;-67
2023/01/24 11:14:55;;;;;;;14.93;10.77;;;;;;;;;;5091346;28;20032;-66
2023/01/24 11:17:35;;;;;;;14.60;11.50;;;;;;;;;;5091641;28;20019;-67
2023/01/24 11:20:20;;;;;;;18.98;11.38;;;;;;;;;;5071034;28;20408;-66
2023/01/24 11:22:50;;;;;;;16.42;11.57;;;;;;;;;;5070873;28;20028;-66
2023/01/24 11:25:16;;;;;;;15.38;11.20;;;;;;;;;;5071374;28;20028;-66
2023/01/24 11:27:47;;;;;;;13.52;10.98;;;;;;;;;;5070994;28;20042;-66
2023/01/24 11:30:13;;;;;;;16.15;10.98;;;;;;;;;;5070881;28;20029;-67
2023/01/24 11:33:06;;;;;;;17.40;11.70;;;;;;;;;;5077975;28;20028;-67
2023/01/24 11:35:37;;;;;;;16.08;11.43;;;;;;;;;;5087325;28;20035;-67
2023/01/24 11:38:13;;;;;;;15.02;10.73;;;;;;;;;;5091034;28;20042;-67
2023/01/24 11:40:42;;;;;;;14.25;11.05;;;;;;;;;;5091192;28;20012;-67
2023/01/24 11:43:20;;;;;;;14.20;11.20;;;;;;;;;;5091017;28;20036;-67
2023/01/24 11:46:05;;;;;;;13.15;11.27;;;;;;;;;;5091309;28;20018;-67
2023/01/24 11:48:39;;;;;;;15.73;11.38;;;;;;;;;;5090783;28;20038;-66
2023/01/24 11:51:24;;;;;;;16.17;12.30;;;;;;;;;;5089607;28;20027;-67
2023/01/24 11:53:56;;;;;;;14.68;11.48;;;;;;;;;;5091249;28;20038;-67
2023/01/24 11:56:28;;;;;;;15.70;11.70;;;;;;;;;;5090200;28;20071;-67
2023/01/24 11:59:03;;;;;;;13.70;11.30;;;;;;;;;;5090732;28;20020;-67
2023/01/24 12:01:34;;;;;;;13.85;11.02;;;;;;;;;;5091185;28;20057;-67
2023/01/24 12:04:00;;;;;;;;;;;;;;;;;;5091582;28;20020;-67
2023/01/24 12:06:45;;;;;;;13.95;11.07;;;;;;;;;;5090650;28;19904;-66
2023/01/24 12:09:26;;;;;;;15.55;10.88;;;;;;;;;;5089483;28;20043;-67
2023/01/24 12:11:55;;;;;;;14.83;10.90;;;;;;;;;;5090836;28;20481;-67
2023/01/24 12:14:40;;;;;;;15.95;11.43;;;;;;;;;;5092125;28;20257;-67
2023/01/24 12:17:12;;;;;;;16.05;11.70;;;;;;;;;;5094903;28;20024;-67
2023/01/24 12:19:39;;;;;;;16.40;10.98;;;;;;;;;;5093992;28;20043;-67
2023/01/24 12:22:10;;;;;;;17.25;11.40;;;;;;;;;;5094765;28;20016;-67
2023/01/24 12:24:38;;;;;;;18.02;10.82;;;;;;;;;;5095288;28;20147;-66
2023/01/24 12:27:13;;;;;;;15.77;11.25;;;;;;;;;;5094229;28;20082;-65
2023/01/24 12:29:43;;;;;;;17.05;10.38;;;;;;;;;;5094730;28;20507;-66
2023/01/24 12:32:18;;;;;;;17.17;11.15;;;;;;;;;;5094907;28;20016;-66
2023/01/24 12:34:46;;;;;;;16.67;11.55;;;;;;;;;;5094801;28;20034;-67
2023/01/24 12:37:24;;;;;;;14.98;11.02;;;;;;;;;;5094561;28;20012;-66
2023/01/24 12:40:09;;;;;;;18.15;12.48;;;;;;;;;;5090728;28;20399;-66
2023/01/24 12:42:54;;;;;;;19.75;12.05;;;;;;;;;;5093340;28;20024;-67
2023/01/24 12:45:23;;;;;;;19.92;12.38;;;;;;;;;;5093444;28;20024;-66
2023/01/24 12:47:54;;;;;;;19.73;12.35;;;;;;;;;;5093940;28;20040;-66
2023/01/24 12:50:26;;;;;;;15.35;10.65;;;;;;;;;;5093831;28;20032;-67
2023/01/24 12:52:55;;;;;;;18.15;11.40;;;;;;;;;;5093601;28;20450;-66
2023/01/24 12:55:26;;;;;;;16.42;11.32;;;;;;;;;;5093936;28;20024;-66
2023/01/24 12:57:52;;;;;;;18.05;11.75;;;;;;;;;;5094085;28;20040;-66
2023/01/24 13:00:20;;;;;;;20.27;12.70;;;;;;;;;;5090867;28;20056;-65
2023/01/24 13:02:49;;;;;;;15.95;12.07;;;;;;;;;;5093397;28;20028;-66
2023/01/24 13:05:35;;;;;;;18.02;11.80;;;;;;;;;;5093391;28;20024;-65
2023/01/24 13:08:07;;;;;;;15.70;11.68;;;;;;;;;;5093256;28;20043;-66
2023/01/24 13:10:51;;;;;;;14.65;11.07;;;;;;;;;;5093270;28;20388;-67
2023/01/24 13:13:21;;;;;;;15.05;11.20;;;;;;;;;;5094032;28;20028;-67
2023/01/24 13:15:51;;;;;;;13.68;9.88;;;;;;;;;;5093727;28;20053;-67
2023/01/24 13:18:47;;;;;;;13.93;10.55;;;;;;;;;;5094820;28;20040;-67
2023/01/24 13:21:23;;;;;;;12.98;10.63;;;;;;;;;;5061095;28;20033;-67
2023/01/24 13:24:08;;;;;;;13.90;10.80;;;;;;;;;;5073354;28;20531;-67
2023/01/24 13:26:40;;;;;;;13.20;10.80;;;;;;;;;;5082978;28;20034;-66
2023/01/24 13:29:23;;;;;;;13.25;11.10;;;;;;;;;;5092761;28;20676;-66
2023/01/24 13:31:58;;;;;;;13.85;11.13;;;;;;;;;;5093039;28;20026;-67
2023/01/24 13:34:32;;;;;;;13.98;11.63;;;;;;;;;;5092298;28;20020;-67
2023/01/24 13:37:00;;;;;;;13.77;11.20;;;;;;;;;;5092953;28;20020;-66
2023/01/24 13:39:39;;;;;;;14.82;11.80;;;;;;;;;;5093054;28;20024;-66
2023/01/24 13:42:06;;;;;;;12.90;11.35;;;;;;;;;;5096221;28;20020;-66
2023/01/24 13:44:35;;;;;;;15.57;12.35;;;;;;;;;;5101550;28;20028;-66
2023/01/24 13:47:03;;;;;;;13.88;11.38;;;;;;;;;;5092828;28;20485;-65
2023/01/24 13:49:29;;;;;;;13.82;10.60;;;;;;;;;;5082523;28;20038;-65
2023/01/24 13:51:56;;;;;;;13.40;10.70;;;;;;;;;;5092735;28;20032;-65
2023/01/24 13:54:31;;;;;;;14.68;11.60;;;;;;;;;;5091272;28;20034;-67
2023/01/24 13:57:16;;;;;;;17.75;14.07;;;;;;;;;;5091611;28;20050;-66
2023/01/24 13:59:43;;;;;;;14.68;11.48;;;;;;;;;;5092430;28;20395;-66
2023/01/24 14:02:29;;;;;;;12.95;11.35;;;;;;;;;;5092232;28;20020;-64
2023/01/24 14:04:56;;;;;;;13.85;10.57;;;;;;;;;;5092282;28;20046;-66
2023/01/24 14:07:27;;;;;;;12.98;10.50;;;;;;;;;;5092305;28;20024;-65
2023/01/24 14:09:58;;;;;;;14.73;11.00;;;;;;;;;;5090938;28;20050;-65
2023/01/24 14:12:24;;;;;;;13.77;11.05;;;;;;;;;;5092841;28;20503;-65
2023/01/24 14:15:09;;;;;;;13.20;10.77;;;;;;;;;;5092336;28;20039;-65
2023/01/24 14:17:43;;;;;;;14.18;11.32;;;;;;;;;;5092011;28;20395;-66
2023/01/24 14:20:28;;;;;;;14.82;11.00;;;;;;;;;;5091752;28;20439;-65
2023/01/24 14:22:58;;;;;;;14.50;11.35;;;;;;;;;;5092468;28;20040;-65
2023/01/24 14:25:33;;;;;;;13.88;11.07;;;;;;;;;;5092135;28;20018;-66
2023/01/24 14:28:11;;;;;;;16.33;11.18;;;;;;;;;;5096152;28;20040;-66
2023/01/24 14:30:44;;;;;;;15.88;12.40;;;;;;;;;;5091708;28;20024;-69
2023/01/24 14:33:16;;;;;;;13.82;11.13;;;;;;;;;;5091681;28;20400;-70
2023/01/24 14:35:52;;;;;;;13.70;11.00;;;;;;;;;;5089788;28;20027;-70
2023/01/24 14:38:19;;;;;;;16.40;12.15;;;;;;;;;;5091409;28;20027;-70
2023/01/24 14:40:55;;;;;;;15.60;11.40;;;;;;;;;;5091709;28;20511;-70
2023/01/24 14:43:22;;;;;;;13.68;10.68;;;;;;;;;;5090099;28;20024;-70
2023/01/24 14:45:49;;;;;;;15.27;11.77;;;;;;;;;;5090500;28;20020;-71
2023/01/24 14:48:22;;;;;;;15.45;11.25;;;;;;;;;;5091583;28;20024;-70
2023/01/24 14:50:57;;;;;;;14.50;10.82;;;;;;;;;;5091782;28;20407;-71
2023/01/24 14:53:28;;;;;;;16.23;11.65;;;;;;;;;;5092041;28;20039;-70
2023/01/24 14:55:55;;;;;;;15.05;11.50;;;;;;;;;;5089853;28;20054;-70
2023/01/24 14:58:26;;;;;;;15.88;11.32;;;;;;;;;;5091023;28;20028;-71
2023/01/24 15:00:53;;;;;;;;;;;;;;;;;;5091834;28;20024;-72
2023/01/24 15:03:21;;;;;;;15.93;11.73;;;;;;;;;;5091512;28;19908;-70
2023/01/24 15:06:07;;;;;;;31.33;20.90;;;;;;;;;;5091348;28;20042;-70
2023/01/24 15:08:34;;;;;;;14.40;10.85;;;;;;;;;;5091110;28;20693;-72
2023/01/24 15:11:02;;;;;;;16.08;11.13;;;;;;;;;;5091498;28;20529;-72
2023/01/24 15:13:49;;;;;;;16.83;11.40;;;;;;;;;;5091033;28;20038;-72